createdAt,value
2023-02-08T00:00:24.199Z,2.63
2023-02-08T00:02:52.801Z,2.20
2023-02-08T00:05:21.407Z,2.43
2023-02-08T00:07:49.951Z,2.47
2023-02-08T00:10:18.428Z,2.33
2023-02-08T00:12:48.402Z,2.50
2023-02-08T00:15:17.120Z,2.30
2023-02-08T00:17:45.915Z,2.20
2023-02-08T00:20:15.557Z,2.23
2023-02-08T00:22:44.051Z,2.10
2023-02-08T00:25:12.709Z,2.17
2023-02-08T00:27:41.288Z,2.33
2023-02-08T00:30:11.959Z,2.40
2023-02-08T00:32:40.605Z,2.47
2023-02-08T00:35:09.596Z,2.60
2023-02-08T00:37:38.064Z,2.03
2023-02-08T00:40:06.961Z,2.10
2023-02-08T00:42:35.585Z,2.50
2023-02-08T00:45:06.466Z,2.30
2023-02-08T00:47:36.524Z,2.07
2023-02-08T00:50:05.444Z,2.00
2023-02-08T00:52:33.928Z,1.77
2023-02-08T00:55:02.608Z,1.93
2023-02-08T00:57:31.088Z,2.00
2023-02-08T00:59:59.568Z,2.00
2023-02-08T01:02:28.369Z,1.70
2023-02-08T01:04:58.243Z,1.67
2023-02-08T01:07:26.739Z,2.07
2023-02-08T01:09:55.429Z,2.07
2023-02-08T01:12:24.945Z,1.80
2023-02-08T01:14:53.433Z,1.93
2023-02-08T01:17:22.128Z,1.83
2023-02-08T01:19:50.958Z,1.87
2023-02-08T01:22:20.819Z,1.70
2023-02-08T01:24:49.427Z,1.77
2023-02-08T01:27:18.077Z,2.00
2023-02-08T01:29:46.817Z,2.00
2023-02-08T01:32:15.440Z,2.00
2023-02-08T01:34:44.339Z,1.63
2023-02-08T01:37:12.871Z,1.90
2023-02-08T01:39:42.861Z,1.33
2023-02-08T01:42:13.741Z,1.93
2023-02-08T01:45:01.007Z,1.93
2023-02-08T01:47:29.684Z,1.60
2023-02-08T01:49:58.292Z,1.87
2023-02-08T01:52:28.882Z,1.60
2023-02-08T01:55:01.604Z,1.63
2023-02-08T01:57:30.676Z,1.60
2023-02-08T02:00:00.827Z,1.80
2023-02-08T02:02:29.861Z,1.73
2023-02-08T02:04:58.717Z,1.50
2023-02-08T02:07:28.861Z,1.67
2023-02-08T02:10:01.630Z,1.40
2023-02-08T02:12:31.955Z,1.70
2023-02-08T02:15:01.260Z,1.40
2023-02-08T02:17:29.922Z,1.40
2023-02-08T02:20:03.890Z,1.60
2023-02-08T02:22:51.128Z,1.40
2023-02-08T02:25:46.631Z,1.30
2023-02-08T02:28:29.975Z,1.40
2023-02-08T02:31:12.122Z,1.30
2023-02-08T02:33:49.504Z,1.40
2023-02-08T02:36:20.436Z,1.50
2023-02-08T02:38:55.889Z,1.40
2023-02-08T02:41:45.867Z,1.30
2023-02-08T02:44:20.529Z,1.50
2023-02-08T02:46:52.377Z,1.57
2023-02-08T02:49:26.181Z,1.40
2023-02-08T02:51:58.159Z,1.30
2023-02-08T02:54:29.544Z,1.57
2023-02-08T02:56:59.290Z,1.53
2023-02-08T02:59:28.248Z,1.20
2023-02-08T03:01:57.348Z,2.27
2023-02-08T03:04:40.872Z,1.70
2023-02-08T03:07:17.975Z,1.27
2023-02-08T03:09:54.739Z,1.77
2023-02-08T03:12:32.616Z,1.40
2023-02-08T03:15:07.921Z,1.47
2023-02-08T03:17:42.993Z,1.63
2023-02-08T03:20:13.861Z,1.20
2023-02-08T03:22:49.891Z,1.47
2023-02-08T03:25:20.952Z,1.27
2023-02-08T03:27:52.111Z,1.40
2023-02-08T03:30:22.851Z,1.50
2023-02-08T03:32:53.197Z,1.70
2023-02-08T03:35:22.584Z,1.50
2023-02-08T03:37:56.008Z,1.40
2023-02-08T03:40:26.031Z,1.70
2023-02-08T03:42:56.348Z,1.63
2023-02-08T03:45:27.086Z,1.47
2023-02-08T03:47:57.685Z,1.30
2023-02-08T03:50:26.343Z,2.10
2023-02-08T03:52:57.172Z,1.60
2023-02-08T03:55:27.887Z,1.30
2023-02-08T03:58:00.561Z,1.40
2023-02-08T04:00:29.260Z,1.67
2023-02-08T04:02:59.302Z,1.40
2023-02-08T04:05:27.989Z,1.60
2023-02-08T04:07:58.154Z,1.40
2023-02-08T04:10:26.623Z,1.10
2023-02-08T04:12:55.128Z,1.60
2023-02-08T04:15:23.851Z,1.37
2023-02-08T04:17:52.316Z,1.93
2023-02-08T04:20:20.993Z,1.60
2023-02-08T04:22:49.929Z,1.10
2023-02-08T04:25:19.812Z,1.60
2023-02-08T04:27:48.367Z,1.30
2023-02-08T04:30:17.087Z,1.50
2023-02-08T04:32:45.567Z,1.30
2023-02-08T04:35:14.047Z,1.50
2023-02-08T04:37:42.871Z,1.40
2023-02-08T04:40:12.167Z,1.10
2023-02-08T04:42:42.059Z,1.30
2023-02-08T04:45:11.240Z,1.10
2023-02-08T04:47:39.887Z,1.40
2023-02-08T04:50:08.545Z,1.27
2023-02-08T04:52:37.141Z,1.30
2023-02-08T04:55:05.765Z,1.30
2023-02-08T04:57:34.224Z,1.10
2023-02-08T05:00:04.323Z,1.77
2023-02-08T05:02:32.906Z,1.40
2023-02-08T05:05:01.461Z,1.03
2023-02-08T05:07:30.092Z,1.17
2023-02-08T05:09:58.684Z,1.20
2023-02-08T05:12:27.222Z,1.37
2023-02-08T05:14:55.826Z,1.20
2023-02-08T05:17:25.786Z,1.20
2023-02-08T05:19:54.243Z,3.60
2023-02-08T05:22:22.876Z,1.50
2023-02-08T05:24:51.432Z,1.50
2023-02-08T05:27:20.159Z,1.10
2023-02-08T05:29:48.831Z,1.27
2023-02-08T05:32:18.612Z,0.77
2023-02-08T05:34:48.911Z,0.90
2023-02-08T05:37:17.489Z,1.07
2023-02-08T05:39:46.158Z,1.00
2023-02-08T05:42:14.744Z,0.97
2023-02-08T05:44:43.338Z,1.33
2023-02-08T05:47:11.801Z,1.27
2023-02-08T05:49:40.332Z,1.13
2023-02-08T05:52:10.384Z,1.07
2023-02-08T05:54:38.862Z,1.17
2023-02-08T05:57:07.605Z,1.40
2023-02-08T05:59:36.250Z,1.30
2023-02-08T06:02:04.924Z,1.10
2023-02-08T06:04:33.520Z,1.33
2023-02-08T06:07:02.050Z,1.10
2023-02-08T06:09:33.231Z,1.30
2023-02-08T06:12:01.809Z,1.47
2023-02-08T06:14:30.364Z,1.63
2023-02-08T06:16:58.945Z,1.53
2023-02-08T06:19:27.519Z,1.17
2023-02-08T06:21:56.179Z,1.20
2023-02-08T06:24:25.349Z,1.13
2023-02-08T06:26:55.283Z,1.30
2023-02-08T06:29:23.967Z,1.20
2023-02-08T06:31:52.548Z,1.60
2023-02-08T06:34:21.338Z,1.30
2023-02-08T06:36:50.119Z,1.27
2023-02-08T06:39:18.613Z,1.40
2023-02-08T06:41:47.083Z,1.30
2023-02-08T06:44:17.256Z,1.40
2023-02-08T06:46:45.736Z,1.33
2023-02-08T06:49:14.256Z,1.50
2023-02-08T06:51:42.970Z,1.50
2023-02-08T06:54:11.483Z,1.23
2023-02-08T06:56:39.957Z,1.40
2023-02-08T06:59:08.617Z,1.90
2023-02-08T07:01:38.651Z,1.60
2023-02-08T07:04:07.547Z,1.63
2023-02-08T07:06:36.372Z,1.37
2023-02-08T07:09:04.851Z,1.23
2023-02-08T07:11:33.347Z,1.30
2023-02-08T07:14:02.037Z,1.23
2023-02-08T07:16:30.630Z,1.17
2023-02-08T07:19:00.548Z,1.20
2023-02-08T07:21:29.331Z,1.83
2023-02-08T07:23:57.811Z,1.30
2023-02-08T07:26:26.475Z,1.57
2023-02-08T07:28:55.939Z,1.40
2023-02-08T07:31:24.414Z,1.47
2023-02-08T07:33:52.894Z,1.50
2023-02-08T07:36:23.124Z,1.57
2023-02-08T07:38:51.599Z,1.30
2023-02-08T07:41:20.088Z,1.43
2023-02-08T07:43:48.736Z,1.63
2023-02-08T07:46:18.771Z,1.57
2023-02-08T07:48:49.366Z,1.77
2023-02-08T07:51:18.025Z,1.97
2023-02-08T07:53:47.883Z,1.87
2023-02-08T07:56:16.458Z,1.63
2023-02-08T07:58:45.302Z,1.90
2023-02-08T08:01:21.826Z,1.60
2023-02-08T08:03:51.273Z,2.10
2023-02-08T08:06:19.928Z,1.60
2023-02-08T08:08:49.894Z,1.83
2023-02-08T08:11:19.083Z,1.77
2023-02-08T08:13:47.796Z,1.80
2023-02-08T08:16:16.473Z,1.97
2023-02-08T08:18:48.126Z,1.53
2023-02-08T08:21:16.980Z,2.00
2023-02-08T08:23:45.487Z,1.47
2023-02-08T08:26:16.487Z,1.73
2023-02-08T08:28:46.915Z,1.63
2023-02-08T08:31:16.595Z,1.90
2023-02-08T08:33:45.456Z,1.67
2023-02-08T08:36:14.170Z,1.73
2023-02-08T08:38:42.636Z,1.73
2023-02-08T08:41:11.665Z,1.50
2023-02-08T08:43:41.628Z,1.30
2023-02-08T08:46:10.430Z,1.80
2023-02-08T08:48:39.588Z,2.30
2023-02-08T08:51:08.548Z,1.40
2023-02-08T08:53:37.256Z,1.70
2023-02-08T08:56:06.338Z,1.87
2023-02-08T08:58:34.930Z,1.33
2023-02-08T09:01:04.832Z,1.40
2023-02-08T09:03:33.575Z,2.47
2023-02-08T09:06:03.219Z,1.40
2023-02-08T09:08:31.696Z,1.60
2023-02-08T09:11:06.218Z,1.70
2023-02-08T09:13:34.707Z,1.53
2023-02-08T09:16:10.217Z,1.50
2023-02-08T09:18:38.883Z,1.93
2023-02-08T09:21:07.818Z,1.50
2023-02-08T09:23:36.776Z,1.60
2023-02-08T09:26:05.839Z,1.93
2023-02-08T09:28:34.360Z,1.73
2023-02-08T09:31:10.868Z,1.43
2023-02-08T09:33:39.622Z,1.67
2023-02-08T09:36:08.633Z,1.83
2023-02-08T09:38:39.001Z,1.40
2023-02-08T09:41:15.722Z,1.57
2023-02-08T09:43:50.747Z,1.33
2023-02-08T09:46:22.542Z,1.40
2023-02-08T09:48:52.734Z,1.50
2023-02-08T09:51:24.055Z,1.50
2023-02-08T09:53:57.296Z,1.53
2023-02-08T09:56:28.454Z,1.60
2023-02-08T09:58:58.749Z,1.40
2023-02-08T10:01:29.877Z,1.47
2023-02-08T10:03:59.864Z,1.90
2023-02-08T10:06:28.422Z,1.30
2023-02-08T10:08:56.962Z,1.10
2023-02-08T10:11:32.236Z,1.30
2023-02-08T10:14:10.544Z,1.30
2023-02-08T10:16:48.354Z,1.70
2023-02-08T10:19:24.799Z,1.27
2023-02-08T10:22:01.753Z,1.60
2023-02-08T10:24:38.685Z,1.33
2023-02-08T10:27:10.862Z,1.30
2023-02-08T10:29:54.168Z,0.97
2023-02-08T10:32:30.636Z,1.10
2023-02-08T10:35:02.004Z,1.67
2023-02-08T10:37:34.622Z,1.20
2023-02-08T10:40:10.424Z,1.30
2023-02-08T10:42:39.468Z,1.20
2023-02-08T10:45:23.922Z,1.47
2023-02-08T10:47:55.650Z,1.33
2023-02-08T10:50:30.143Z,0.97
2023-02-08T10:52:58.888Z,1.37
2023-02-08T10:55:27.662Z,1.00
2023-02-08T10:57:59.450Z,1.13
2023-02-08T11:00:29.021Z,0.87
2023-02-08T11:03:00.874Z,1.63
2023-02-08T11:05:35.772Z,1.20
2023-02-08T11:08:08.377Z,1.20
2023-02-08T11:10:38.299Z,1.10
2023-02-08T11:13:08.454Z,1.17
2023-02-08T11:15:41.321Z,1.00
2023-02-08T11:18:19.941Z,1.00
2023-02-08T11:20:50.174Z,1.00
2023-02-08T11:23:23.833Z,0.97
2023-02-08T11:25:53.195Z,1.07
2023-02-08T11:28:29.000Z,0.80
2023-02-08T11:30:58.719Z,0.80
2023-02-08T11:33:28.869Z,0.97
2023-02-08T11:36:04.932Z,0.97
2023-02-08T11:38:35.038Z,0.80
2023-02-08T11:41:04.988Z,0.70
2023-02-08T11:43:34.997Z,0.77
2023-02-08T11:46:04.496Z,0.67
2023-02-08T11:48:38.860Z,0.80
2023-02-08T11:51:07.844Z,0.80
2023-02-08T11:53:37.964Z,0.60
2023-02-08T11:56:08.277Z,0.90
2023-02-08T11:58:38.905Z,0.70
2023-02-08T12:01:08.388Z,0.70
2023-02-08T12:03:40.426Z,0.73
2023-02-08T12:06:17.397Z,0.70
2023-02-08T12:08:52.987Z,0.50
2023-02-08T12:11:25.895Z,0.67
2023-02-08T12:14:02.049Z,0.60
2023-02-08T12:16:37.789Z,0.70
2023-02-08T12:19:18.588Z,0.53
2023-02-08T12:21:47.875Z,0.60
2023-02-08T12:24:20.036Z,0.60
2023-02-08T12:26:53.665Z,0.60
2023-02-08T12:29:45.575Z,0.70
2023-02-08T12:32:33.212Z,0.60
2023-02-08T12:35:20.241Z,0.57
2023-02-08T12:38:12.617Z,0.50
2023-02-08T12:40:52.930Z,0.60
2023-02-08T12:43:26.046Z,0.47
2023-02-08T12:46:02.254Z,0.70
2023-02-08T12:48:39.987Z,0.53
2023-02-08T12:51:15.143Z,0.50
2023-02-08T12:53:45.476Z,0.50
2023-02-08T12:56:16.784Z,0.40
2023-02-08T12:58:46.952Z,0.70
2023-02-08T13:01:17.818Z,0.40
2023-02-08T13:03:49.488Z,0.50
2023-02-08T13:06:22.465Z,0.50
2023-02-08T13:08:55.130Z,0.67
2023-02-08T13:11:26.349Z,0.60
2023-02-08T13:13:58.235Z,0.60
2023-02-08T13:16:28.342Z,0.50
2023-02-08T13:18:59.061Z,0.80
2023-02-08T13:21:31.859Z,0.60
2023-02-08T13:24:00.534Z,0.60
2023-02-08T13:26:31.588Z,0.80
2023-02-08T13:29:02.536Z,0.60
2023-02-08T13:31:32.453Z,1.00
2023-02-08T13:34:02.430Z,0.83
2023-02-08T13:36:34.726Z,1.00
2023-02-08T13:39:04.812Z,0.97
2023-02-08T13:41:34.256Z,1.20
2023-02-08T13:44:03.803Z,1.00
2023-02-08T13:46:39.126Z,1.23
2023-02-08T13:49:08.046Z,1.37
2023-02-08T13:51:57.311Z,1.37
2023-02-08T13:54:27.376Z,1.40
2023-02-08T13:56:55.971Z,1.40
2023-02-08T13:59:33.926Z,1.30
2023-02-08T14:02:22.795Z,1.20
2023-02-08T14:04:52.452Z,1.50
2023-02-08T14:07:28.762Z,1.80
2023-02-08T14:10:09.941Z,1.60
2023-02-08T14:12:41.884Z,1.30
2023-02-08T14:15:26.676Z,1.40
2023-02-08T14:17:58.425Z,1.80
2023-02-08T14:20:29.420Z,1.40
2023-02-08T14:22:59.434Z,1.40
2023-02-08T14:25:32.004Z,1.40
2023-02-08T14:28:01.783Z,1.60
2023-02-08T14:30:31.654Z,1.43
2023-02-08T14:33:16.605Z,1.50
2023-02-08T14:35:52.595Z,1.60
2023-02-08T14:38:36.622Z,2.20
2023-02-08T14:41:06.515Z,1.50
2023-02-08T14:43:36.380Z,1.47
2023-02-08T14:46:23.490Z,1.70
2023-02-08T14:48:52.734Z,1.47
2023-02-08T14:51:25.784Z,1.30
2023-02-08T14:53:56.136Z,1.30
2023-02-08T14:56:28.374Z,1.30
2023-02-08T14:58:59.151Z,1.20
2023-02-08T15:01:34.025Z,1.60
2023-02-08T15:04:03.546Z,1.20
2023-02-08T15:07:05.202Z,0.93
2023-02-08T15:09:37.900Z,0.90
2023-02-08T15:12:09.676Z,1.10
2023-02-08T15:14:39.317Z,1.07
2023-02-08T15:17:07.963Z,1.20
2023-02-08T15:19:38.604Z,1.20
2023-02-08T15:22:20.144Z,1.17
2023-02-08T15:24:52.026Z,1.13
2023-02-08T15:27:29.072Z,1.03
2023-02-08T15:29:57.777Z,1.17
2023-02-08T15:32:27.241Z,1.20
2023-02-08T15:34:56.737Z,1.50
2023-02-08T15:37:25.705Z,1.30
2023-02-08T15:39:55.936Z,1.30
2023-02-08T15:42:26.969Z,1.30
2023-02-08T15:44:55.562Z,1.50
2023-02-08T15:47:27.864Z,1.47
2023-02-08T15:49:57.121Z,1.60
2023-02-08T15:52:26.859Z,1.30
2023-02-08T15:54:55.504Z,1.60
2023-02-08T15:57:29.830Z,1.93
2023-02-08T15:59:58.952Z,2.10
2023-02-08T16:02:29.642Z,2.20
2023-02-08T16:04:58.543Z,2.50
2023-02-08T16:07:29.349Z,2.40
2023-02-08T16:09:58.088Z,2.20
2023-02-08T16:12:29.311Z,2.40
2023-02-08T16:14:58.314Z,2.30
2023-02-08T16:17:34.241Z,2.40
2023-02-08T16:20:02.977Z,2.17
2023-02-08T16:22:33.050Z,2.40
2023-02-08T16:25:20.111Z,2.23
2023-02-08T16:27:50.700Z,2.70
2023-02-08T16:30:21.006Z,2.60
2023-02-08T16:32:50.109Z,2.63
2023-02-08T16:35:24.809Z,3.67
2023-02-08T16:37:59.107Z,3.67
2023-02-08T16:40:43.412Z,4.10
2023-02-08T16:43:19.784Z,4.27
2023-02-08T16:45:48.461Z,4.10
2023-02-08T16:48:33.305Z,5.60
2023-02-08T16:51:01.989Z,5.40
2023-02-08T16:53:41.320Z,5.90
2023-02-08T16:56:11.131Z,6.97
2023-02-08T16:58:41.056Z,6.73
2023-02-08T17:01:11.929Z,6.83
2023-02-08T17:03:40.696Z,6.43
2023-02-08T17:06:09.774Z,7.30
2023-02-08T17:08:38.293Z,6.83
2023-02-08T17:11:07.055Z,8.20
2023-02-08T17:13:35.524Z,7.03
2023-02-08T17:16:05.586Z,8.70
2023-02-08T17:18:35.045Z,8.20
2023-02-08T17:21:03.846Z,6.93
2023-02-08T17:23:32.325Z,7.37
2023-02-08T17:26:01.328Z,7.43
2023-02-08T17:28:31.544Z,8.23
2023-02-08T17:31:00.106Z,7.97
2023-02-08T17:33:30.147Z,7.23
2023-02-08T17:35:58.645Z,8.00
2023-02-08T17:38:28.604Z,7.17
2023-02-08T17:41:00.372Z,8.77
2023-02-08T17:43:29.375Z,8.03
2023-02-08T17:45:57.865Z,8.07
2023-02-08T17:48:27.269Z,8.10
2023-02-08T17:50:57.152Z,8.30
2023-02-08T17:53:25.622Z,8.33
2023-02-08T17:55:54.851Z,8.47
2023-02-08T17:58:23.331Z,9.20
2023-02-08T18:00:51.865Z,8.97
2023-02-08T18:03:20.531Z,9.07
2023-02-08T18:05:49.004Z,9.57
2023-02-08T18:08:18.860Z,9.43
2023-02-08T18:10:47.514Z,12.63
2023-02-08T18:13:16.278Z,11.57
2023-02-08T18:15:45.012Z,12.37
2023-02-08T18:18:14.603Z,11.97
2023-02-08T18:20:44.939Z,12.97
2023-02-08T18:23:13.441Z,11.83
2023-02-08T18:25:43.774Z,18.03
2023-02-08T18:28:15.204Z,11.67
2023-02-08T18:30:44.015Z,11.03
2023-02-08T18:33:13.781Z,11.63
2023-02-08T18:35:43.181Z,11.93
2023-02-08T18:38:11.894Z,11.70
2023-02-08T18:40:43.287Z,11.73
2023-02-08T18:43:11.770Z,11.37
2023-02-08T18:45:40.376Z,11.97
2023-02-08T18:48:08.960Z,11.63
2023-02-08T18:50:37.424Z,12.20
2023-02-08T18:53:06.168Z,12.00
2023-02-08T18:55:34.710Z,12.13
2023-02-08T18:58:04.674Z,12.17
2023-02-08T19:00:33.173Z,11.13
2023-02-08T19:03:01.786Z,12.00
2023-02-08T19:05:30.724Z,12.20
2023-02-08T19:07:59.186Z,12.30
2023-02-08T19:10:27.837Z,11.93
2023-02-08T19:12:56.424Z,11.80
2023-02-08T19:15:26.306Z,11.60
2023-02-08T19:17:56.041Z,10.87
2023-02-08T19:20:24.619Z,11.50
2023-02-08T19:22:53.087Z,11.37
2023-02-08T19:25:21.756Z,11.97
2023-02-08T19:27:51.100Z,11.20
2023-02-08T19:30:20.600Z,11.13
2023-02-08T19:32:50.616Z,11.30
2023-02-08T19:35:19.768Z,11.20
2023-02-08T19:37:50.327Z,10.60
2023-02-08T19:40:19.786Z,11.10
2023-02-08T19:42:48.965Z,10.40
2023-02-08T19:45:17.596Z,10.20
2023-02-08T19:47:51.524Z,9.37
2023-02-08T19:50:21.853Z,9.83
2023-02-08T19:52:50.512Z,8.47
2023-02-08T19:55:19.132Z,9.80
2023-02-08T19:57:47.679Z,9.90
2023-02-08T20:00:23.447Z,9.53
2023-02-08T20:02:52.740Z,9.00
2023-02-08T20:05:22.709Z,9.80
2023-02-08T20:07:51.194Z,9.87
2023-02-08T20:10:19.741Z,10.27
2023-02-08T20:12:48.370Z,10.10
2023-02-08T20:15:16.867Z,10.87
2023-02-08T20:17:45.764Z,10.73
2023-02-08T20:20:14.425Z,11.93
2023-02-08T20:22:44.278Z,10.10
2023-02-08T20:25:12.825Z,11.57
2023-02-08T20:27:41.359Z,9.23
2023-02-08T20:30:11.932Z,12.60
2023-02-08T20:32:40.931Z,10.37
2023-02-08T20:35:09.539Z,11.23
2023-02-08T20:37:38.014Z,10.80
2023-02-08T20:40:08.561Z,10.03
2023-02-08T20:42:37.175Z,12.00
2023-02-08T20:45:06.050Z,11.00
2023-02-08T20:47:41.698Z,10.00
2023-02-08T20:50:19.044Z,10.80
2023-02-08T20:52:49.039Z,9.67
2023-02-08T20:55:19.186Z,9.70
2023-02-08T20:57:47.672Z,10.90
2023-02-08T21:00:16.605Z,9.30
2023-02-08T21:02:45.225Z,9.03
2023-02-08T21:05:13.725Z,9.37
2023-02-08T21:07:42.288Z,10.23
2023-02-08T21:10:10.959Z,8.93
2023-02-08T21:12:40.855Z,8.33
2023-02-08T21:15:09.953Z,9.30
2023-02-08T21:17:41.107Z,9.37
2023-02-08T21:20:10.269Z,9.03
2023-02-08T21:22:38.940Z,8.60
2023-02-08T21:25:07.781Z,9.60
2023-02-08T21:27:36.308Z,9.10
2023-02-08T21:30:06.721Z,9.67
2023-02-08T21:32:35.436Z,8.83
2023-02-08T21:35:04.066Z,9.33
2023-02-08T21:37:35.209Z,11.03
2023-02-08T21:40:03.846Z,10.87
2023-02-08T21:42:32.377Z,10.00
2023-02-08T21:45:00.900Z,11.10
2023-02-08T21:47:30.948Z,11.63
2023-02-08T21:50:17.183Z,11.93
2023-02-08T21:53:03.241Z,11.73
2023-02-08T21:55:31.984Z,11.30
2023-02-08T21:58:00.646Z,11.97
2023-02-08T22:00:29.308Z,12.17
2023-02-08T22:02:59.283Z,13.07
2023-02-08T22:05:45.572Z,11.80
2023-02-08T22:08:14.228Z,12.60
2023-02-08T22:10:50.167Z,12.07
2023-02-08T22:13:25.471Z,13.43
2023-02-08T22:15:54.182Z,14.10
2023-02-08T22:18:24.215Z,13.20
2023-02-08T22:20:53.171Z,15.13
2023-02-08T22:23:21.806Z,14.83
2023-02-08T22:25:50.412Z,15.63
2023-02-08T22:28:19.128Z,16.47
2023-02-08T22:30:49.281Z,13.50
2023-02-08T22:33:17.955Z,15.07
2023-02-08T22:35:47.989Z,16.50
2023-02-08T22:38:16.486Z,14.90
2023-02-08T22:40:45.430Z,16.37
2023-02-08T22:43:14.295Z,17.97
2023-02-08T22:45:43.233Z,17.73
2023-02-08T22:48:11.864Z,17.40
2023-02-08T22:50:40.681Z,16.47
2023-02-08T22:53:10.617Z,16.37
2023-02-08T22:55:39.109Z,17.40
2023-02-08T22:58:07.964Z,16.00
2023-02-08T23:00:36.466Z,17.10
2023-02-08T23:03:05.766Z,15.87
2023-02-08T23:05:34.552Z,17.77
2023-02-08T23:08:03.061Z,16.10
2023-02-08T23:10:32.942Z,16.07
2023-02-08T23:13:01.611Z,16.33
2023-02-08T23:15:30.100Z,15.57
2023-02-08T23:17:58.709Z,16.87
2023-02-08T23:20:27.625Z,14.33
2023-02-08T23:22:56.103Z,15.73
2023-02-08T23:25:24.631Z,14.53
2023-02-08T23:27:54.902Z,12.63
2023-02-08T23:30:23.476Z,15.10
2023-02-08T23:32:51.952Z,13.50
2023-02-08T23:35:20.653Z,13.47
2023-02-08T23:37:49.325Z,13.67
2023-02-08T23:40:17.812Z,13.60
2023-02-08T23:42:46.469Z,12.70
2023-02-08T23:45:16.351Z,13.50
2023-02-08T23:47:44.942Z,11.97
2023-02-08T23:50:14.295Z,11.73
2023-02-08T23:52:43.061Z,11.30
2023-02-08T23:55:11.680Z,10.20
2023-02-08T23:57:40.924Z,11.60
